sensor_id;sensor_type;location;lat;lon;timestamp;temperature;humidity
4759;DHT22;2393;50.560;12.636;2023-12-20T00:01:44;4.10;99.90
4759;DHT22;2393;50.560;12.636;2023-12-20T00:04:14;4.10;99.90
4759;DHT22;2393;50.560;12.636;2023-12-20T00:06:44;4.10;99.90
4759;DHT22;2393;50.560;12.636;2023-12-20T00:09:14;4.10;99.90
4759;DHT22;2393;50.560;12.636;2023-12-20T00:11:43;4.10;99.90
4759;DHT22;2393;50.560;12.636;2023-12-20T00:14:12;4.10;99.90
4759;DHT22;2393;50.560;12.636;2023-12-20T00:16:42;4.10;99.90
4759;DHT22;2393;50.560;12.636;2023-12-20T00:19:10;4.10;99.90
4759;DHT22;2393;50.560;12.636;2023-12-20T00:21:44;4.10;99.90
4759;DHT22;2393;50.560;12.636;2023-12-20T00:24:15;4.10;99.90
4759;DHT22;2393;50.560;12.636;2023-12-20T00:26:46;4.10;99.90
4759;DHT22;2393;50.560;12.636;2023-12-20T00:29:15;4.10;99.90
4759;DHT22;2393;50.560;12.636;2023-12-20T00:31:44;4.10;99.90
4759;DHT22;2393;50.560;12.636;2023-12-20T00:34:16;4.10;99.90
4759;DHT22;2393;50.560;12.636;2023-12-20T00:36:46;4.10;99.90
4759;DHT22;2393;50.560;12.636;2023-12-20T00:39:16;4.10;99.90
4759;DHT22;2393;50.560;12.636;2023-12-20T00:41:45;4.10;99.90
4759;DHT22;2393;50.560;12.636;2023-12-20T00:44:14;4.10;99.90
4759;DHT22;2393;50.560;12.636;2023-12-20T00:46:43;4.10;99.90
4759;DHT22;2393;50.560;12.636;2023-12-20T00:49:12;4.00;99.90
4759;DHT22;2393;50.560;12.636;2023-12-20T00:51:41;4.00;99.90
4759;DHT22;2393;50.560;12.636;2023-12-20T00:54:12;4.00;99.90
4759;DHT22;2393;50.560;12.636;2023-12-20T00:56:41;3.90;99.90
4759;DHT22;2393;50.560;12.636;2023-12-20T00:59:10;4.00;99.90
4759;DHT22;2393;50.560;12.636;2023-12-20T01:01:39;4.00;99.90
4759;DHT22;2393;50.560;12.636;2023-12-20T01:04:10;3.90;99.90
4759;DHT22;2393;50.560;12.636;2023-12-20T01:06:39;3.80;99.90
4759;DHT22;2393;50.560;12.636;2023-12-20T01:09:07;3.90;99.90
4759;DHT22;2393;50.560;12.636;2023-12-20T01:11:38;3.90;99.90
4759;DHT22;2393;50.560;12.636;2023-12-20T01:14:08;3.80;99.90
4759;DHT22;2393;50.560;12.636;2023-12-20T01:16:37;3.80;99.90
4759;DHT22;2393;50.560;12.636;2023-12-20T01:19:05;3.70;99.90
4759;DHT22;2393;50.560;12.636;2023-12-20T01:21:35;3.70;99.90
4759;DHT22;2393;50.560;12.636;2023-12-20T01:24:06;3.70;99.90
4759;DHT22;2393;50.560;12.636;2023-12-20T01:26:40;3.70;99.90
4759;DHT22;2393;50.560;12.636;2023-12-20T01:29:12;3.60;99.90
4759;DHT22;2393;50.560;12.636;2023-12-20T01:31:42;3.60;99.90
4759;DHT22;2393;50.560;12.636;2023-12-20T01:34:11;3.60;99.90
4759;DHT22;2393;50.560;12.636;2023-12-20T01:36:41;3.60;99.90
4759;DHT22;2393;50.560;12.636;2023-12-20T01:39:10;3.60;99.90
4759;DHT22;2393;50.560;12.636;2023-12-20T01:41:55;3.60;99.90
4759;DHT22;2393;50.560;12.636;2023-12-20T01:44:26;3.60;99.90
4759;DHT22;2393;50.560;12.636;2023-12-20T01:46:55;3.50;99.90
4759;DHT22;2393;50.560;12.636;2023-12-20T01:49:25;3.50;99.90
4759;DHT22;2393;50.560;12.636;2023-12-20T01:51:55;3.40;99.90
4759;DHT22;2393;50.560;12.636;2023-12-20T01:54:24;3.40;99.90
4759;DHT22;2393;50.560;12.636;2023-12-20T01:56:55;3.40;99.90
4759;DHT22;2393;50.560;12.636;2023-12-20T01:59:24;3.40;99.90
4759;DHT22;2393;50.560;12.636;2023-12-20T02:01:54;3.40;99.90
4759;DHT22;2393;50.560;12.636;2023-12-20T02:04:24;3.30;99.90
4759;DHT22;2393;50.560;12.636;2023-12-20T02:06:55;3.30;99.90
4759;DHT22;2393;50.560;12.636;2023-12-20T02:09:24;3.30;99.90
4759;DHT22;2393;50.560;12.636;2023-12-20T02:11:53;3.30;99.90
4759;DHT22;2393;50.560;12.636;2023-12-20T02:14:26;3.30;99.90
4759;DHT22;2393;50.560;12.636;2023-12-20T02:16:55;3.30;99.90
4759;DHT22;2393;50.560;12.636;2023-12-20T02:19:24;3.30;99.90
4759;DHT22;2393;50.560;12.636;2023-12-20T02:22:08;3.20;99.90
4759;DHT22;2393;50.560;12.636;2023-12-20T02:24:37;3.20;99.90
4759;DHT22;2393;50.560;12.636;2023-12-20T02:27:08;3.20;99.90
4759;DHT22;2393;50.560;12.636;2023-12-20T02:29:37;3.20;99.90
4759;DHT22;2393;50.560;12.636;2023-12-20T02:32:06;3.20;99.90
4759;DHT22;2393;50.560;12.636;2023-12-20T02:34:35;3.30;99.90
4759;DHT22;2393;50.560;12.636;2023-12-20T02:37:06;3.30;99.90
4759;DHT22;2393;50.560;12.636;2023-12-20T02:39:36;3.30;99.90
4759;DHT22;2393;50.560;12.636;2023-12-20T02:42:05;3.30;99.90
4759;DHT22;2393;50.560;12.636;2023-12-20T02:44:34;3.30;99.90
4759;DHT22;2393;50.560;12.636;2023-12-20T02:47:03;3.20;99.90
4759;DHT22;2393;50.560;12.636;2023-12-20T02:49:32;3.30;99.90
4759;DHT22;2393;50.560;12.636;2023-12-20T02:52:01;3.30;99.90
4759;DHT22;2393;50.560;12.636;2023-12-20T02:54:31;3.20;99.90
4759;DHT22;2393;50.560;12.636;2023-12-20T02:57:00;3.20;99.90
4759;DHT22;2393;50.560;12.636;2023-12-20T02:59:30;3.30;99.90
4759;DHT22;2393;50.560;12.636;2023-12-20T03:02:01;3.30;99.90
4759;DHT22;2393;50.560;12.636;2023-12-20T03:04:30;3.30;99.90
4759;DHT22;2393;50.560;12.636;2023-12-20T03:07:01;3.20;99.90
4759;DHT22;2393;50.560;12.636;2023-12-20T03:09:33;3.20;99.90
4759;DHT22;2393;50.560;12.636;2023-12-20T03:12:24;3.20;99.90
4759;DHT22;2393;50.560;12.636;2023-12-20T03:14:54;3.20;99.90
4759;DHT22;2393;50.560;12.636;2023-12-20T03:17:23;3.20;99.90
4759;DHT22;2393;50.560;12.636;2023-12-20T03:19:52;3.20;99.90
4759;DHT22;2393;50.560;12.636;2023-12-20T03:22:21;3.20;99.90
4759;DHT22;2393;50.560;12.636;2023-12-20T03:24:53;3.20;99.90
4759;DHT22;2393;50.560;12.636;2023-12-20T03:27:26;3.20;99.90
4759;DHT22;2393;50.560;12.636;2023-12-20T03:29:54;3.20;99.90
4759;DHT22;2393;50.560;12.636;2023-12-20T03:32:23;3.20;99.90
4759;DHT22;2393;50.560;12.636;2023-12-20T03:34:53;3.20;99.90
4759;DHT22;2393;50.560;12.636;2023-12-20T03:37:22;3.20;99.90
4759;DHT22;2393;50.560;12.636;2023-12-20T03:39:53;3.20;99.90
4759;DHT22;2393;50.560;12.636;2023-12-20T03:42:22;3.20;99.90
4759;DHT22;2393;50.560;12.636;2023-12-20T03:44:52;3.20;99.90
4759;DHT22;2393;50.560;12.636;2023-12-20T03:47:21;3.10;99.90
4759;DHT22;2393;50.560;12.636;2023-12-20T03:49:50;3.10;99.90
4759;DHT22;2393;50.560;12.636;2023-12-20T03:52:19;3.10;99.90
4759;DHT22;2393;50.560;12.636;2023-12-20T03:54:47;3.00;99.90
4759;DHT22;2393;50.560;12.636;2023-12-20T03:57:18;3.00;99.90
4759;DHT22;2393;50.560;12.636;2023-12-20T03:59:47;3.10;99.90
4759;DHT22;2393;50.560;12.636;2023-12-20T04:02:18;3.00;99.90
4759;DHT22;2393;50.560;12.636;2023-12-20T04:04:47;3.00;99.90
4759;DHT22;2393;50.560;12.636;2023-12-20T04:07:16;3.00;99.90
4759;DHT22;2393;50.560;12.636;2023-12-20T04:09:47;2.90;99.90
4759;DHT22;2393;50.560;12.636;2023-12-20T04:12:15;3.00;99.90
4759;DHT22;2393;50.560;12.636;2023-12-20T04:14:48;2.90;99.90
4759;DHT22;2393;50.560;12.636;2023-12-20T04:17:18;2.90;99.90
4759;DHT22;2393;50.560;12.636;2023-12-20T04:19:46;2.90;99.90
4759;DHT22;2393;50.560;12.636;2023-12-20T04:22:15;2.90;99.90
4759;DHT22;2393;50.560;12.636;2023-12-20T04:24:45;2.80;99.90
4759;DHT22;2393;50.560;12.636;2023-12-20T04:27:14;2.80;99.90
4759;DHT22;2393;50.560;12.636;2023-12-20T04:29:43;2.70;99.90
4759;DHT22;2393;50.560;12.636;2023-12-20T04:32:13;2.70;99.90
4759;DHT22;2393;50.560;12.636;2023-12-20T04:34:42;2.70;99.90
4759;DHT22;2393;50.560;12.636;2023-12-20T04:37:11;2.60;99.90
4759;DHT22;2393;50.560;12.636;2023-12-20T04:39:41;2.70;99.90
4759;DHT22;2393;50.560;12.636;2023-12-20T04:42:11;2.60;99.90
4759;DHT22;2393;50.560;12.636;2023-12-20T04:44:39;2.60;99.90
4759;DHT22;2393;50.560;12.636;2023-12-20T04:47:09;2.60;99.90
4759;DHT22;2393;50.560;12.636;2023-12-20T04:49:40;2.60;99.90
4759;DHT22;2393;50.560;12.636;2023-12-20T04:52:10;2.60;99.90
4759;DHT22;2393;50.560;12.636;2023-12-20T04:54:38;2.60;99.90
4759;DHT22;2393;50.560;12.636;2023-12-20T04:57:11;2.60;99.90
4759;DHT22;2393;50.560;12.636;2023-12-20T04:59:41;2.60;99.90
4759;DHT22;2393;50.560;12.636;2023-12-20T05:02:10;2.60;99.90
4759;DHT22;2393;50.560;12.636;2023-12-20T05:04:40;2.60;99.90
4759;DHT22;2393;50.560;12.636;2023-12-20T05:07:09;2.60;99.90
4759;DHT22;2393;50.560;12.636;2023-12-20T05:09:39;2.60;99.90
4759;DHT22;2393;50.560;12.636;2023-12-20T05:12:09;2.60;99.90
4759;DHT22;2393;50.560;12.636;2023-12-20T05:14:39;2.70;99.90
4759;DHT22;2393;50.560;12.636;2023-12-20T05:17:08;2.60;99.90
4759;DHT22;2393;50.560;12.636;2023-12-20T05:19:37;2.70;99.90
4759;DHT22;2393;50.560;12.636;2023-12-20T05:22:32;2.70;99.90
4759;DHT22;2393;50.560;12.636;2023-12-20T05:25:09;2.70;99.90
4759;DHT22;2393;50.560;12.636;2023-12-20T05:27:44;2.70;99.90
4759;DHT22;2393;50.560;12.636;2023-12-20T05:30:31;2.60;99.90
4759;DHT22;2393;50.560;12.636;2023-12-20T05:33:05;2.70;99.90
4759;DHT22;2393;50.560;12.636;2023-12-20T05:35:50;2.70;99.90
4759;DHT22;2393;50.560;12.636;2023-12-20T05:38:24;2.70;99.90
4759;DHT22;2393;50.560;12.636;2023-12-20T05:41:00;2.80;99.90
4759;DHT22;2393;50.560;12.636;2023-12-20T05:43:36;2.70;99.90
4759;DHT22;2393;50.560;12.636;2023-12-20T05:46:21;2.80;99.90
4759;DHT22;2393;50.560;12.636;2023-12-20T05:49:11;2.80;99.90
4759;DHT22;2393;50.560;12.636;2023-12-20T05:51:57;2.80;99.90
4759;DHT22;2393;50.560;12.636;2023-12-20T05:54:35;2.80;99.90
4759;DHT22;2393;50.560;12.636;2023-12-20T05:57:10;2.80;99.90
4759;DHT22;2393;50.560;12.636;2023-12-20T05:59:58;2.80;99.90
4759;DHT22;2393;50.560;12.636;2023-12-20T06:02:42;2.90;99.90
4759;DHT22;2393;50.560;12.636;2023-12-20T06:05:19;2.90;99.90
4759;DHT22;2393;50.560;12.636;2023-12-20T06:08:16;2.90;99.90
4759;DHT22;2393;50.560;12.636;2023-12-20T06:10:47;3.00;99.90
4759;DHT22;2393;50.560;12.636;2023-12-20T06:13:23;3.00;99.90
4759;DHT22;2393;50.560;12.636;2023-12-20T06:15:57;3.00;99.90
4759;DHT22;2393;50.560;12.636;2023-12-20T06:18:41;3.10;99.90
4759;DHT22;2393;50.560;12.636;2023-12-20T06:21:18;3.10;99.90
4759;DHT22;2393;50.560;12.636;2023-12-20T06:23:51;3.20;99.90
4759;DHT22;2393;50.560;12.636;2023-12-20T06:26:25;3.20;99.90
4759;DHT22;2393;50.560;12.636;2023-12-20T06:29:06;3.10;99.90
4759;DHT22;2393;50.560;12.636;2023-12-20T06:31:58;3.20;99.90
4759;DHT22;2393;50.560;12.636;2023-12-20T06:34:36;3.20;99.90
4759;DHT22;2393;50.560;12.636;2023-12-20T06:37:16;3.20;99.90
4759;DHT22;2393;50.560;12.636;2023-12-20T06:39:55;3.20;99.90
4759;DHT22;2393;50.560;12.636;2023-12-20T06:42:48;3.30;99.90
4759;DHT22;2393;50.560;12.636;2023-12-20T06:45:40;3.40;99.90
4759;DHT22;2393;50.560;12.636;2023-12-20T06:48:19;3.40;99.90
4759;DHT22;2393;50.560;12.636;2023-12-20T06:50:59;3.40;99.90
4759;DHT22;2393;50.560;12.636;2023-12-20T06:53:42;3.50;99.90
4759;DHT22;2393;50.560;12.636;2023-12-20T06:56:13;3.50;99.90
4759;DHT22;2393;50.560;12.636;2023-12-20T06:58:50;3.50;99.90
4759;DHT22;2393;50.560;12.636;2023-12-20T07:01:48;3.50;99.90
4759;DHT22;2393;50.560;12.636;2023-12-20T07:04:21;3.50;99.90
4759;DHT22;2393;50.560;12.636;2023-12-20T07:07:03;3.50;99.90
4759;DHT22;2393;50.560;12.636;2023-12-20T07:09:38;3.40;99.90
4759;DHT22;2393;50.560;12.636;2023-12-20T07:12:23;3.40;99.90
4759;DHT22;2393;50.560;12.636;2023-12-20T07:15:00;3.30;99.90
4759;DHT22;2393;50.560;12.636;2023-12-20T07:17:41;3.30;99.90
4759;DHT22;2393;50.560;12.636;2023-12-20T07:20:23;3.30;99.90
4759;DHT22;2393;50.560;12.636;2023-12-20T07:23:04;3.30;99.90
4759;DHT22;2393;50.560;12.636;2023-12-20T07:25:44;3.40;99.90
4759;DHT22;2393;50.560;12.636;2023-12-20T07:28:19;3.40;99.90
4759;DHT22;2393;50.560;12.636;2023-12-20T07:30:54;3.40;99.90
4759;DHT22;2393;50.560;12.636;2023-12-20T07:33:26;3.40;99.90
4759;DHT22;2393;50.560;12.636;2023-12-20T07:36:10;3.50;99.90
4759;DHT22;2393;50.560;12.636;2023-12-20T07:38:42;3.50;99.90
4759;DHT22;2393;50.560;12.636;2023-12-20T07:41:21;3.60;99.90
4759;DHT22;2393;50.560;12.636;2023-12-20T07:43:53;3.60;99.90
4759;DHT22;2393;50.560;12.636;2023-12-20T07:46:38;3.60;99.90
4759;DHT22;2393;50.560;12.636;2023-12-20T07:49:21;3.60;99.90
4759;DHT22;2393;50.560;12.636;2023-12-20T07:52:07;3.60;99.90
4759;DHT22;2393;50.560;12.636;2023-12-20T07:54:51;3.60;99.90
4759;DHT22;2393;50.560;12.636;2023-12-20T07:57:58;3.70;99.90
4759;DHT22;2393;50.560;12.636;2023-12-20T08:00:34;3.70;99.90
4759;DHT22;2393;50.560;12.636;2023-12-20T08:03:10;3.70;99.90
4759;DHT22;2393;50.560;12.636;2023-12-20T08:05:44;3.70;99.90
4759;DHT22;2393;50.560;12.636;2023-12-20T08:08:23;3.70;99.90
4759;DHT22;2393;50.560;12.636;2023-12-20T08:11:08;3.70;99.90
4759;DHT22;2393;50.560;12.636;2023-12-20T08:14:03;3.70;99.90
4759;DHT22;2393;50.560;12.636;2023-12-20T08:16:40;3.70;99.90
4759;DHT22;2393;50.560;12.636;2023-12-20T08:19:20;3.80;99.90
4759;DHT22;2393;50.560;12.636;2023-12-20T08:22:01;3.80;99.90
4759;DHT22;2393;50.560;12.636;2023-12-20T08:24:32;3.70;99.90
4759;DHT22;2393;50.560;12.636;2023-12-20T08:27:04;3.70;99.90
4759;DHT22;2393;50.560;12.636;2023-12-20T08:29:36;3.70;99.90
4759;DHT22;2393;50.560;12.636;2023-12-20T08:32:07;3.80;99.90
4759;DHT22;2393;50.560;12.636;2023-12-20T08:34:51;3.70;99.90
4759;DHT22;2393;50.560;12.636;2023-12-20T08:37:19;3.80;99.90
4759;DHT22;2393;50.560;12.636;2023-12-20T08:39:49;3.70;99.90
4759;DHT22;2393;50.560;12.636;2023-12-20T08:42:18;3.70;99.90
4759;DHT22;2393;50.560;12.636;2023-12-20T08:44:48;3.70;99.90
4759;DHT22;2393;50.560;12.636;2023-12-20T08:47:18;3.70;99.90
4759;DHT22;2393;50.560;12.636;2023-12-20T08:49:48;3.70;99.90
4759;DHT22;2393;50.560;12.636;2023-12-20T08:52:18;3.70;99.90
4759;DHT22;2393;50.560;12.636;2023-12-20T08:54:47;3.70;99.90
4759;DHT22;2393;50.560;12.636;2023-12-20T08:57:19;3.70;99.90
4759;DHT22;2393;50.560;12.636;2023-12-20T08:59:50;3.70;99.90
4759;DHT22;2393;50.560;12.636;2023-12-20T09:02:19;3.80;99.90
4759;DHT22;2393;50.560;12.636;2023-12-20T09:04:51;3.80;99.90
4759;DHT22;2393;50.560;12.636;2023-12-20T09:07:24;3.80;99.90
4759;DHT22;2393;50.560;12.636;2023-12-20T09:09:53;3.90;99.90
4759;DHT22;2393;50.560;12.636;2023-12-20T09:12:25;3.90;99.90
4759;DHT22;2393;50.560;12.636;2023-12-20T09:14:54;3.90;99.90
4759;DHT22;2393;50.560;12.636;2023-12-20T09:17:24;4.00;99.90
4759;DHT22;2393;50.560;12.636;2023-12-20T09:19:56;4.00;99.90
4759;DHT22;2393;50.560;12.636;2023-12-20T09:22:27;4.00;99.90
4759;DHT22;2393;50.560;12.636;2023-12-20T09:24:56;4.00;99.90
4759;DHT22;2393;50.560;12.636;2023-12-20T09:27:26;4.10;99.90
4759;DHT22;2393;50.560;12.636;2023-12-20T09:29:55;4.10;99.90
4759;DHT22;2393;50.560;12.636;2023-12-20T09:32:26;4.10;99.90
4759;DHT22;2393;50.560;12.636;2023-12-20T09:34:56;4.10;99.90
4759;DHT22;2393;50.560;12.636;2023-12-20T09:37:27;4.10;99.90
4759;DHT22;2393;50.560;12.636;2023-12-20T09:39:57;4.20;99.90
4759;DHT22;2393;50.560;12.636;2023-12-20T09:42:33;4.20;99.90
4759;DHT22;2393;50.560;12.636;2023-12-20T09:45:08;4.20;99.90
4759;DHT22;2393;50.560;12.636;2023-12-20T09:47:40;4.20;99.90
4759;DHT22;2393;50.560;12.636;2023-12-20T09:50:12;4.20;99.90
4759;DHT22;2393;50.560;12.636;2023-12-20T09:52:43;4.20;99.90
4759;DHT22;2393;50.560;12.636;2023-12-20T09:55:17;4.20;99.90
4759;DHT22;2393;50.560;12.636;2023-12-20T09:57:47;4.20;99.90
4759;DHT22;2393;50.560;12.636;2023-12-20T10:00:19;4.20;99.90
4759;DHT22;2393;50.560;12.636;2023-12-20T10:02:50;4.20;99.90
4759;DHT22;2393;50.560;12.636;2023-12-20T10:05:27;4.20;99.90
4759;DHT22;2393;50.560;12.636;2023-12-20T10:07:58;4.30;99.90
4759;DHT22;2393;50.560;12.636;2023-12-20T10:10:29;4.30;99.90
4759;DHT22;2393;50.560;12.636;2023-12-20T10:13:12;4.30;99.90
4759;DHT22;2393;50.560;12.636;2023-12-20T10:15:43;4.60;99.90
4759;DHT22;2393;50.560;12.636;2023-12-20T10:18:15;4.70;99.90
4759;DHT22;2393;50.560;12.636;2023-12-20T10:20:47;4.80;99.90
4759;DHT22;2393;50.560;12.636;2023-12-20T10:23:16;5.20;99.90
4759;DHT22;2393;50.560;12.636;2023-12-20T10:25:56;5.20;99.90
4759;DHT22;2393;50.560;12.636;2023-12-20T10:28:27;5.40;99.90
4759;DHT22;2393;50.560;12.636;2023-12-20T10:31:02;5.40;99.90
4759;DHT22;2393;50.560;12.636;2023-12-20T10:33:31;5.60;99.90
4759;DHT22;2393;50.560;12.636;2023-12-20T10:36:03;5.70;99.90
4759;DHT22;2393;50.560;12.636;2023-12-20T10:38:33;5.70;99.90
4759;DHT22;2393;50.560;12.636;2023-12-20T10:41:05;5.70;99.90
4759;DHT22;2393;50.560;12.636;2023-12-20T10:43:36;5.70;99.90
4759;DHT22;2393;50.560;12.636;2023-12-20T10:46:05;5.60;99.90
4759;DHT22;2393;50.560;12.636;2023-12-20T10:48:36;5.50;99.90
4759;DHT22;2393;50.560;12.636;2023-12-20T10:51:07;5.40;99.90
4759;DHT22;2393;50.560;12.636;2023-12-20T10:53:39;5.30;99.90
4759;DHT22;2393;50.560;12.636;2023-12-20T10:56:12;5.10;99.90
4759;DHT22;2393;50.560;12.636;2023-12-20T10:58:42;5.10;99.90
4759;DHT22;2393;50.560;12.636;2023-12-20T11:01:14;4.90;99.90
4759;DHT22;2393;50.560;12.636;2023-12-20T11:03:48;4.90;99.90
4759;DHT22;2393;50.560;12.636;2023-12-20T11:06:43;4.80;99.90
4759;DHT22;2393;50.560;12.636;2023-12-20T11:09:19;4.80;99.90
4759;DHT22;2393;50.560;12.636;2023-12-20T11:11:59;4.80;99.90
4759;DHT22;2393;50.560;12.636;2023-12-20T11:14:34;4.80;99.90
4759;DHT22;2393;50.560;12.636;2023-12-20T11:17:07;4.80;99.90
4759;DHT22;2393;50.560;12.636;2023-12-20T11:19:37;4.80;99.90
4759;DHT22;2393;50.560;12.636;2023-12-20T11:22:09;4.90;99.90
4759;DHT22;2393;50.560;12.636;2023-12-20T11:24:44;4.90;99.90
4759;DHT22;2393;50.560;12.636;2023-12-20T11:27:15;5.00;99.90
4759;DHT22;2393;50.560;12.636;2023-12-20T11:29:51;5.20;99.90
4759;DHT22;2393;50.560;12.636;2023-12-20T11:32:29;5.60;99.90
4759;DHT22;2393;50.560;12.636;2023-12-20T11:34:59;6.10;99.90
4759;DHT22;2393;50.560;12.636;2023-12-20T11:37:35;6.50;99.90
4759;DHT22;2393;50.560;12.636;2023-12-20T11:40:07;6.60;99.90
4759;DHT22;2393;50.560;12.636;2023-12-20T11:42:38;6.60;99.90
4759;DHT22;2393;50.560;12.636;2023-12-20T11:45:09;6.60;99.90
4759;DHT22;2393;50.560;12.636;2023-12-20T11:47:44;6.40;99.90
4759;DHT22;2393;50.560;12.636;2023-12-20T11:50:16;6.20;99.90
4759;DHT22;2393;50.560;12.636;2023-12-20T11:52:48;6.00;99.90
4759;DHT22;2393;50.560;12.636;2023-12-20T11:55:18;5.90;99.90
4759;DHT22;2393;50.560;12.636;2023-12-20T11:57:50;5.90;99.90
4759;DHT22;2393;50.560;12.636;2023-12-20T12:00:20;6.00;99.90
4759;DHT22;2393;50.560;12.636;2023-12-20T12:02:56;5.90;99.90
4759;DHT22;2393;50.560;12.636;2023-12-20T12:05:25;5.80;99.90
4759;DHT22;2393;50.560;12.636;2023-12-20T12:07:56;5.70;99.90
4759;DHT22;2393;50.560;12.636;2023-12-20T12:10:25;5.60;99.90
4759;DHT22;2393;50.560;12.636;2023-12-20T12:12:54;5.40;99.90
4759;DHT22;2393;50.560;12.636;2023-12-20T12:15:23;5.30;99.90
4759;DHT22;2393;50.560;12.636;2023-12-20T12:17:54;5.30;99.90
4759;DHT22;2393;50.560;12.636;2023-12-20T12:20:23;5.20;99.90
4759;DHT22;2393;50.560;12.636;2023-12-20T12:23:00;5.10;99.90
4759;DHT22;2393;50.560;12.636;2023-12-20T12:25:32;5.00;99.90
4759;DHT22;2393;50.560;12.636;2023-12-20T12:28:03;5.00;99.90
4759;DHT22;2393;50.560;12.636;2023-12-20T12:30:32;4.90;99.90
4759;DHT22;2393;50.560;12.636;2023-12-20T12:33:08;4.80;99.90
4759;DHT22;2393;50.560;12.636;2023-12-20T12:35:40;4.70;99.90
4759;DHT22;2393;50.560;12.636;2023-12-20T12:38:11;4.60;99.90
4759;DHT22;2393;50.560;12.636;2023-12-20T12:40:40;4.60;99.90
4759;DHT22;2393;50.560;12.636;2023-12-20T12:43:15;4.60;99.90
4759;DHT22;2393;50.560;12.636;2023-12-20T12:45:44;4.50;99.90
4759;DHT22;2393;50.560;12.636;2023-12-20T12:48:14;4.50;99.90
4759;DHT22;2393;50.560;12.636;2023-12-20T12:50:43;4.50;99.90
4759;DHT22;2393;50.560;12.636;2023-12-20T12:53:13;4.40;99.90
4759;DHT22;2393;50.560;12.636;2023-12-20T12:55:44;4.40;99.90
4759;DHT22;2393;50.560;12.636;2023-12-20T12:58:14;4.40;99.90
4759;DHT22;2393;50.560;12.636;2023-12-20T13:00:43;4.50;99.90
4759;DHT22;2393;50.560;12.636;2023-12-20T13:03:12;4.40;99.90
4759;DHT22;2393;50.560;12.636;2023-12-20T13:05:42;4.40;99.90
4759;DHT22;2393;50.560;12.636;2023-12-20T13:08:14;4.30;99.90
4759;DHT22;2393;50.560;12.636;2023-12-20T13:10:44;4.30;99.90
4759;DHT22;2393;50.560;12.636;2023-12-20T13:13:13;4.30;99.90
4759;DHT22;2393;50.560;12.636;2023-12-20T13:15:44;4.20;99.90
4759;DHT22;2393;50.560;12.636;2023-12-20T13:18:18;4.10;99.90
4759;DHT22;2393;50.560;12.636;2023-12-20T13:20:47;4.10;99.90
4759;DHT22;2393;50.560;12.636;2023-12-20T13:23:17;4.00;99.90
4759;DHT22;2393;50.560;12.636;2023-12-20T13:25:46;3.90;99.90
4759;DHT22;2393;50.560;12.636;2023-12-20T13:28:16;3.90;99.90
4759;DHT22;2393;50.560;12.636;2023-12-20T13:30:45;3.90;99.90
4759;DHT22;2393;50.560;12.636;2023-12-20T13:33:15;3.80;99.90
4759;DHT22;2393;50.560;12.636;2023-12-20T13:35:44;3.80;99.90
4759;DHT22;2393;50.560;12.636;2023-12-20T13:38:13;3.90;99.90
4759;DHT22;2393;50.560;12.636;2023-12-20T13:40:44;3.90;99.90
4759;DHT22;2393;50.560;12.636;2023-12-20T13:43:14;3.90;99.90
4759;DHT22;2393;50.560;12.636;2023-12-20T13:45:48;4.00;99.90
4759;DHT22;2393;50.560;12.636;2023-12-20T13:48:17;3.90;99.90
4759;DHT22;2393;50.560;12.636;2023-12-20T13:50:47;4.00;99.90
4759;DHT22;2393;50.560;12.636;2023-12-20T13:53:16;4.10;99.90
4759;DHT22;2393;50.560;12.636;2023-12-20T13:55:48;4.10;99.90
4759;DHT22;2393;50.560;12.636;2023-12-20T13:58:17;4.20;99.90
4759;DHT22;2393;50.560;12.636;2023-12-20T14:00:46;4.40;99.90
4759;DHT22;2393;50.560;12.636;2023-12-20T14:03:15;4.40;99.90
4759;DHT22;2393;50.560;12.636;2023-12-20T14:05:46;4.30;99.90
4759;DHT22;2393;50.560;12.636;2023-12-20T14:08:18;4.20;99.90
4759;DHT22;2393;50.560;12.636;2023-12-20T14:10:49;4.10;99.90
4759;DHT22;2393;50.560;12.636;2023-12-20T14:13:21;4.10;99.90
4759;DHT22;2393;50.560;12.636;2023-12-20T14:15:51;4.00;99.90
4759;DHT22;2393;50.560;12.636;2023-12-20T14:18:21;3.90;99.90
4759;DHT22;2393;50.560;12.636;2023-12-20T14:20:51;3.90;99.90
4759;DHT22;2393;50.560;12.636;2023-12-20T14:23:22;3.80;99.90
4759;DHT22;2393;50.560;12.636;2023-12-20T14:25:54;3.80;99.90
4759;DHT22;2393;50.560;12.636;2023-12-20T14:28:25;3.70;99.90
4759;DHT22;2393;50.560;12.636;2023-12-20T14:30:54;3.70;99.90
4759;DHT22;2393;50.560;12.636;2023-12-20T14:33:24;3.60;99.90
4759;DHT22;2393;50.560;12.636;2023-12-20T14:35:53;3.60;99.90
4759;DHT22;2393;50.560;12.636;2023-12-20T14:38:23;3.60;99.90
4759;DHT22;2393;50.560;12.636;2023-12-20T14:40:54;3.60;99.90
4759;DHT22;2393;50.560;12.636;2023-12-20T14:43:24;3.50;99.90
4759;DHT22;2393;50.560;12.636;2023-12-20T14:45:55;3.50;99.90
4759;DHT22;2393;50.560;12.636;2023-12-20T14:48:26;3.60;99.90
4759;DHT22;2393;50.560;12.636;2023-12-20T14:50:57;3.60;99.90
4759;DHT22;2393;50.560;12.636;2023-12-20T14:53:26;3.60;99.90
4759;DHT22;2393;50.560;12.636;2023-12-20T14:55:57;3.60;99.90
4759;DHT22;2393;50.560;12.636;2023-12-20T14:58:26;3.60;99.90
4759;DHT22;2393;50.560;12.636;2023-12-20T15:00:57;3.60;99.90
4759;DHT22;2393;50.560;12.636;2023-12-20T15:03:28;3.60;99.90
4759;DHT22;2393;50.560;12.636;2023-12-20T15:05:58;3.60;99.90
4759;DHT22;2393;50.560;12.636;2023-12-20T15:08:28;3.60;99.90
4759;DHT22;2393;50.560;12.636;2023-12-20T15:11:02;3.60;99.90
4759;DHT22;2393;50.560;12.636;2023-12-20T15:13:31;3.50;99.90
4759;DHT22;2393;50.560;12.636;2023-12-20T15:16:00;3.60;99.90
4759;DHT22;2393;50.560;12.636;2023-12-20T15:18:30;3.60;99.90
4759;DHT22;2393;50.560;12.636;2023-12-20T15:20:59;3.60;99.90
4759;DHT22;2393;50.560;12.636;2023-12-20T15:23:31;3.60;99.90
4759;DHT22;2393;50.560;12.636;2023-12-20T15:26:01;3.60;99.90
4759;DHT22;2393;50.560;12.636;2023-12-20T15:28:30;3.60;99.90
4759;DHT22;2393;50.560;12.636;2023-12-20T15:30:59;3.60;99.90
4759;DHT22;2393;50.560;12.636;2023-12-20T15:33:28;3.60;99.90
4759;DHT22;2393;50.560;12.636;2023-12-20T15:35:57;3.70;99.90
4759;DHT22;2393;50.560;12.636;2023-12-20T15:38:26;3.70;99.90
4759;DHT22;2393;50.560;12.636;2023-12-20T15:40:55;3.70;99.90
4759;DHT22;2393;50.560;12.636;2023-12-20T15:43:26;3.60;99.90
4759;DHT22;2393;50.560;12.636;2023-12-20T15:45:54;3.70;99.90
4759;DHT22;2393;50.560;12.636;2023-12-20T15:48:23;3.70;99.90
4759;DHT22;2393;50.560;12.636;2023-12-20T15:50:56;3.70;99.90
4759;DHT22;2393;50.560;12.636;2023-12-20T15:53:24;3.70;99.90
4759;DHT22;2393;50.560;12.636;2023-12-20T15:55:53;3.70;99.90
4759;DHT22;2393;50.560;12.636;2023-12-20T15:58:22;3.70;99.90
4759;DHT22;2393;50.560;12.636;2023-12-20T16:00:53;3.70;99.90
4759;DHT22;2393;50.560;12.636;2023-12-20T16:03:22;3.80;99.90
4759;DHT22;2393;50.560;12.636;2023-12-20T16:05:53;3.70;99.90
4759;DHT22;2393;50.560;12.636;2023-12-20T16:08:22;3.70;99.90
4759;DHT22;2393;50.560;12.636;2023-12-20T16:10:52;3.80;99.90
4759;DHT22;2393;50.560;12.636;2023-12-20T16:13:22;3.80;99.90
4759;DHT22;2393;50.560;12.636;2023-12-20T16:15:55;3.80;99.90
4759;DHT22;2393;50.560;12.636;2023-12-20T16:18:24;3.80;99.90
4759;DHT22;2393;50.560;12.636;2023-12-20T16:20:55;3.80;99.90
4759;DHT22;2393;50.560;12.636;2023-12-20T16:23:25;3.70;99.90
4759;DHT22;2393;50.560;12.636;2023-12-20T16:25:54;3.80;99.90
4759;DHT22;2393;50.560;12.636;2023-12-20T16:28:23;3.80;99.90
4759;DHT22;2393;50.560;12.636;2023-12-20T16:30:54;3.70;99.90
4759;DHT22;2393;50.560;12.636;2023-12-20T16:33:25;3.80;99.90
4759;DHT22;2393;50.560;12.636;2023-12-20T16:35:55;3.80;99.90